sensor_id;sensor_type;location;lat;lon;timestamp;temperature;humidity
49711;DHT22;35602;44.534;18.696;2022-11-20T00:02:00;21.30;56.10
49711;DHT22;35602;44.534;18.696;2022-11-20T00:07:01;21.30;56.10
49711;DHT22;35602;44.534;18.696;2022-11-20T00:12:02;21.30;56.00
49711;DHT22;35602;44.534;18.696;2022-11-20T00:17:02;21.30;56.10
49711;DHT22;35602;44.534;18.696;2022-11-20T00:22:03;21.30;56.10
49711;DHT22;35602;44.534;18.696;2022-11-20T00:27:04;21.30;56.00
49711;DHT22;35602;44.534;18.696;2022-11-20T00:32:05;21.30;56.00
49711;DHT22;35602;44.534;18.696;2022-11-20T00:37:06;21.30;56.00
49711;DHT22;35602;44.534;18.696;2022-11-20T00:42:06;21.30;56.00
49711;DHT22;35602;44.534;18.696;2022-11-20T00:47:07;21.30;56.10
49711;DHT22;35602;44.534;18.696;2022-11-20T00:52:08;21.30;56.00
49711;DHT22;35602;44.534;18.696;2022-11-20T00:57:09;21.30;56.40
49711;DHT22;35602;44.534;18.696;2022-11-20T01:02:09;21.20;55.90
49711;DHT22;35602;44.534;18.696;2022-11-20T01:07:10;21.20;55.90
49711;DHT22;35602;44.534;18.696;2022-11-20T01:12:11;21.20;55.90
49711;DHT22;35602;44.534;18.696;2022-11-20T01:17:12;21.20;55.80
49711;DHT22;35602;44.534;18.696;2022-11-20T01:22:12;21.30;55.90
49711;DHT22;35602;44.534;18.696;2022-11-20T01:27:13;21.30;55.80
49711;DHT22;35602;44.534;18.696;2022-11-20T01:32:14;21.30;55.90
49711;DHT22;35602;44.534;18.696;2022-11-20T01:37:15;21.20;55.90
49711;DHT22;35602;44.534;18.696;2022-11-20T01:42:16;21.20;55.80
49711;DHT22;35602;44.534;18.696;2022-11-20T01:47:40;21.20;55.80
49711;DHT22;35602;44.534;18.696;2022-11-20T01:53:01;21.20;55.80
49711;DHT22;35602;44.534;18.696;2022-11-20T01:58:03;21.20;55.70
49711;DHT22;35602;44.534;18.696;2022-11-20T02:03:11;21.30;55.80
49711;DHT22;35602;44.534;18.696;2022-11-20T02:08:14;21.20;55.70
49711;DHT22;35602;44.534;18.696;2022-11-20T02:13:15;21.20;55.70
49711;DHT22;35602;44.534;18.696;2022-11-20T02:18:36;21.20;55.70
49711;DHT22;35602;44.534;18.696;2022-11-20T02:23:41;21.30;55.80
49711;DHT22;35602;44.534;18.696;2022-11-20T02:28:44;21.20;55.70
49711;DHT22;35602;44.534;18.696;2022-11-20T02:33:44;21.20;55.70
49711;DHT22;35602;44.534;18.696;2022-11-20T02:38:45;21.20;56.30
49711;DHT22;35602;44.534;18.696;2022-11-20T02:43:46;21.20;55.70
49711;DHT22;35602;44.534;18.696;2022-11-20T02:48:47;21.20;55.60
49711;DHT22;35602;44.534;18.696;2022-11-20T02:53:47;21.20;55.60
49711;DHT22;35602;44.534;18.696;2022-11-20T02:58:48;21.20;55.70
49711;DHT22;35602;44.534;18.696;2022-11-20T03:03:49;21.30;55.70
49711;DHT22;35602;44.534;18.696;2022-11-20T03:08:50;21.20;55.60
49711;DHT22;35602;44.534;18.696;2022-11-20T03:13:51;21.20;55.70
49711;DHT22;35602;44.534;18.696;2022-11-20T03:18:52;21.20;55.70
49711;DHT22;35602;44.534;18.696;2022-11-20T03:23:54;21.20;55.70
49711;DHT22;35602;44.534;18.696;2022-11-20T03:28:57;21.20;55.60
49711;DHT22;35602;44.534;18.696;2022-11-20T03:33:59;21.20;55.60
49711;DHT22;35602;44.534;18.696;2022-11-20T03:39:00;21.20;55.50
49711;DHT22;35602;44.534;18.696;2022-11-20T03:44:02;21.20;55.60
49711;DHT22;35602;44.534;18.696;2022-11-20T03:49:04;21.20;55.50
49711;DHT22;35602;44.534;18.696;2022-11-20T03:54:08;21.20;55.50
49711;DHT22;35602;44.534;18.696;2022-11-20T03:59:10;21.20;55.50
49711;DHT22;35602;44.534;18.696;2022-11-20T04:04:11;21.20;55.50
49711;DHT22;35602;44.534;18.696;2022-11-20T04:09:13;21.20;55.50
49711;DHT22;35602;44.534;18.696;2022-11-20T04:14:15;21.20;55.50
49711;DHT22;35602;44.534;18.696;2022-11-20T04:19:16;21.20;55.50
49711;DHT22;35602;44.534;18.696;2022-11-20T04:24:17;21.20;55.40
49711;DHT22;35602;44.534;18.696;2022-11-20T04:29:18;21.20;55.40
49711;DHT22;35602;44.534;18.696;2022-11-20T04:34:19;21.20;55.50
49711;DHT22;35602;44.534;18.696;2022-11-20T04:39:20;21.20;55.40
49711;DHT22;35602;44.534;18.696;2022-11-20T04:44:20;21.20;55.30
49711;DHT22;35602;44.534;18.696;2022-11-20T04:49:21;21.20;55.30
49711;DHT22;35602;44.534;18.696;2022-11-20T04:54:22;21.20;55.40
49711;DHT22;35602;44.534;18.696;2022-11-20T04:59:23;21.20;56.00
49711;DHT22;35602;44.534;18.696;2022-11-20T05:04:24;21.20;55.40
49711;DHT22;35602;44.534;18.696;2022-11-20T05:09:24;21.20;55.30
49711;DHT22;35602;44.534;18.696;2022-11-20T05:14:25;21.20;55.30
49711;DHT22;35602;44.534;18.696;2022-11-20T05:19:26;21.20;55.30
49711;DHT22;35602;44.534;18.696;2022-11-20T05:24:27;21.20;55.20
49711;DHT22;35602;44.534;18.696;2022-11-20T05:29:28;21.20;55.20
49711;DHT22;35602;44.534;18.696;2022-11-20T05:34:29;21.20;55.20
49711;DHT22;35602;44.534;18.696;2022-11-20T05:39:29;21.20;55.20
49711;DHT22;35602;44.534;18.696;2022-11-20T05:44:30;21.20;55.10
49711;DHT22;35602;44.534;18.696;2022-11-20T05:49:32;21.20;55.50
49711;DHT22;35602;44.534;18.696;2022-11-20T05:54:32;21.20;55.10
49711;DHT22;35602;44.534;18.696;2022-11-20T05:59:33;21.20;55.10
49711;DHT22;35602;44.534;18.696;2022-11-20T06:04:34;21.20;55.10
49711;DHT22;35602;44.534;18.696;2022-11-20T06:09:35;21.20;55.00
49711;DHT22;35602;44.534;18.696;2022-11-20T06:14:36;21.20;55.00
49711;DHT22;35602;44.534;18.696;2022-11-20T06:19:36;21.20;55.00
49711;DHT22;35602;44.534;18.696;2022-11-20T06:24:37;21.20;55.10
49711;DHT22;35602;44.534;18.696;2022-11-20T06:29:38;21.20;55.00
49711;DHT22;35602;44.534;18.696;2022-11-20T06:34:39;21.20;55.60
49711;DHT22;35602;44.534;18.696;2022-11-20T06:39:39;21.20;55.00
49711;DHT22;35602;44.534;18.696;2022-11-20T06:44:40;21.20;54.90
49711;DHT22;35602;44.534;18.696;2022-11-20T06:49:41;21.20;54.90
49711;DHT22;35602;44.534;18.696;2022-11-20T06:54:42;21.20;54.80
49711;DHT22;35602;44.534;18.696;2022-11-20T06:59:43;21.20;54.90
49711;DHT22;35602;44.534;18.696;2022-11-20T07:04:43;21.20;54.80
49711;DHT22;35602;44.534;18.696;2022-11-20T07:09:44;21.20;54.80
49711;DHT22;35602;44.534;18.696;2022-11-20T07:14:45;21.20;54.80
49711;DHT22;35602;44.534;18.696;2022-11-20T07:19:46;21.20;54.80
49711;DHT22;35602;44.534;18.696;2022-11-20T07:24:47;21.20;54.80
49711;DHT22;35602;44.534;18.696;2022-11-20T07:29:48;21.20;54.70
49711;DHT22;35602;44.534;18.696;2022-11-20T07:34:49;21.20;55.40
49711;DHT22;35602;44.534;18.696;2022-11-20T07:39:50;21.20;55.20
49711;DHT22;35602;44.534;18.696;2022-11-20T07:44:51;21.20;54.70
49711;DHT22;35602;44.534;18.696;2022-11-20T07:49:52;21.20;54.60
49711;DHT22;35602;44.534;18.696;2022-11-20T07:54:52;21.20;54.70
49711;DHT22;35602;44.534;18.696;2022-11-20T07:59:53;21.20;54.60
49711;DHT22;35602;44.534;18.696;2022-11-20T08:04:54;21.20;54.60
49711;DHT22;35602;44.534;18.696;2022-11-20T08:09:55;21.20;54.60
49711;DHT22;35602;44.534;18.696;2022-11-20T08:14:56;21.20;54.50
49711;DHT22;35602;44.534;18.696;2022-11-20T08:19:59;21.20;54.50
49711;DHT22;35602;44.534;18.696;2022-11-20T08:25:00;21.20;54.60
49711;DHT22;35602;44.534;18.696;2022-11-20T08:30:00;21.20;54.60
49711;DHT22;35602;44.534;18.696;2022-11-20T08:35:01;21.20;54.50
49711;DHT22;35602;44.534;18.696;2022-11-20T08:40:02;21.20;54.50
49711;DHT22;35602;44.534;18.696;2022-11-20T08:45:04;21.20;54.50
49711;DHT22;35602;44.534;18.696;2022-11-20T08:50:06;21.20;54.40
49711;DHT22;35602;44.534;18.696;2022-11-20T08:55:08;21.20;54.40
49711;DHT22;35602;44.534;18.696;2022-11-20T09:00:11;21.20;54.40
49711;DHT22;35602;44.534;18.696;2022-11-20T09:05:12;21.20;54.40
49711;DHT22;35602;44.534;18.696;2022-11-20T09:10:12;21.20;54.40
49711;DHT22;35602;44.534;18.696;2022-11-20T09:15:13;21.10;54.30
49711;DHT22;35602;44.534;18.696;2022-11-20T09:20:14;21.20;54.60
49711;DHT22;35602;44.534;18.696;2022-11-20T09:25:17;21.20;54.30
49711;DHT22;35602;44.534;18.696;2022-11-20T09:30:18;21.20;54.30
49711;DHT22;35602;44.534;18.696;2022-11-20T09:35:18;21.20;54.30
49711;DHT22;35602;44.534;18.696;2022-11-20T09:40:28;21.20;54.20
49711;DHT22;35602;44.534;18.696;2022-11-20T09:57:54;21.20;54.20
49711;DHT22;35602;44.534;18.696;2022-11-20T10:03:02;21.10;54.10
49711;DHT22;35602;44.534;18.696;2022-11-20T10:08:25;21.10;54.10
49711;DHT22;35602;44.534;18.696;2022-11-20T10:15:06;21.20;54.10
49711;DHT22;35602;44.534;18.696;2022-11-20T10:20:19;21.10;54.50
49711;DHT22;35602;44.534;18.696;2022-11-20T10:25:24;21.20;54.00
49711;DHT22;35602;44.534;18.696;2022-11-20T10:30:26;21.10;54.00
49711;DHT22;35602;44.534;18.696;2022-11-20T10:35:45;21.10;54.00
49711;DHT22;35602;44.534;18.696;2022-11-20T10:40:53;21.10;54.00
49711;DHT22;35602;44.534;18.696;2022-11-20T10:46:25;21.20;54.10
49711;DHT22;35602;44.534;18.696;2022-11-20T10:53:05;21.20;54.00
49711;DHT22;35602;44.534;18.696;2022-11-20T11:00:46;21.10;54.00
49711;DHT22;35602;44.534;18.696;2022-11-20T11:05:54;21.10;53.90
49711;DHT22;35602;44.534;18.696;2022-11-20T11:11:29;21.10;53.90
49711;DHT22;35602;44.534;18.696;2022-11-20T11:16:30;21.10;53.90
49711;DHT22;35602;44.534;18.696;2022-11-20T11:21:31;21.10;54.00
49711;DHT22;35602;44.534;18.696;2022-11-20T11:26:32;21.20;54.00
49711;DHT22;35602;44.534;18.696;2022-11-20T11:31:34;21.20;54.00
49711;DHT22;35602;44.534;18.696;2022-11-20T11:36:35;21.20;54.00
49711;DHT22;35602;44.534;18.696;2022-11-20T11:41:36;21.10;53.90
49711;DHT22;35602;44.534;18.696;2022-11-20T11:46:37;21.20;54.00
49711;DHT22;35602;44.534;18.696;2022-11-20T11:52:07;21.10;53.90
49711;DHT22;35602;44.534;18.696;2022-11-20T11:59:49;21.10;53.90
49711;DHT22;35602;44.534;18.696;2022-11-20T12:05:00;21.10;54.10
49711;DHT22;35602;44.534;18.696;2022-11-20T12:10:04;21.10;53.90
49711;DHT22;35602;44.534;18.696;2022-11-20T12:15:11;21.10;53.90
49711;DHT22;35602;44.534;18.696;2022-11-20T12:20:14;21.10;53.90
49711;DHT22;35602;44.534;18.696;2022-11-20T12:25:22;21.10;53.80
49711;DHT22;35602;44.534;18.696;2022-11-20T12:30:25;21.10;53.90
49711;DHT22;35602;44.534;18.696;2022-11-20T12:36:11;21.20;53.90
49711;DHT22;35602;44.534;18.696;2022-11-20T12:48:51;21.10;53.90
49711;DHT22;35602;44.534;18.696;2022-11-20T13:03:51;21.10;53.80
49711;DHT22;35602;44.534;18.696;2022-11-20T13:08:56;21.10;53.80
49711;DHT22;35602;44.534;18.696;2022-11-20T13:20:43;21.20;53.80
49711;DHT22;35602;44.534;18.696;2022-11-20T13:25:44;21.10;53.80
49711;DHT22;35602;44.534;18.696;2022-11-20T13:30:52;21.10;53.70
49711;DHT22;35602;44.534;18.696;2022-11-20T13:36:05;21.10;53.80
49711;DHT22;35602;44.534;18.696;2022-11-20T13:41:08;21.10;53.70
49711;DHT22;35602;44.534;18.696;2022-11-20T13:46:41;21.10;53.70
49711;DHT22;35602;44.534;18.696;2022-11-20T13:51:47;21.10;53.70
49711;DHT22;35602;44.534;18.696;2022-11-20T13:57:38;21.10;53.70
49711;DHT22;35602;44.534;18.696;2022-11-20T14:02:41;21.10;53.70
49711;DHT22;35602;44.534;18.696;2022-11-20T14:07:43;21.10;53.70
49711;DHT22;35602;44.534;18.696;2022-11-20T14:12:44;21.10;53.70
49711;DHT22;35602;44.534;18.696;2022-11-20T14:17:45;21.10;54.30
49711;DHT22;35602;44.534;18.696;2022-11-20T14:22:53;21.10;53.70
49711;DHT22;35602;44.534;18.696;2022-11-20T14:27:56;21.10;53.70
49711;DHT22;35602;44.534;18.696;2022-11-20T14:33:02;21.10;53.70
49711;DHT22;35602;44.534;18.696;2022-11-20T14:38:04;21.10;53.60
49711;DHT22;35602;44.534;18.696;2022-11-20T14:43:46;21.10;53.60
49711;DHT22;35602;44.534;18.696;2022-11-20T14:48:51;21.10;53.60
49711;DHT22;35602;44.534;18.696;2022-11-20T14:53:54;21.10;53.60
49711;DHT22;35602;44.534;18.696;2022-11-20T14:58:56;21.10;53.60
49711;DHT22;35602;44.534;18.696;2022-11-20T15:04:06;21.10;53.60
49711;DHT22;35602;44.534;18.696;2022-11-20T15:09:14;21.10;53.60
49711;DHT22;35602;44.534;18.696;2022-11-20T15:14:15;21.10;53.50
49711;DHT22;35602;44.534;18.696;2022-11-20T15:19:23;21.10;53.60
49711;DHT22;35602;44.534;18.696;2022-11-20T15:24:25;21.10;53.50
49711;DHT22;35602;44.534;18.696;2022-11-20T15:29:25;21.10;53.50
49711;DHT22;35602;44.534;18.696;2022-11-20T15:34:27;21.10;53.50
49711;DHT22;35602;44.534;18.696;2022-11-20T15:39:28;21.10;53.90
49711;DHT22;35602;44.534;18.696;2022-11-20T15:44:29;21.10;53.40
49711;DHT22;35602;44.534;18.696;2022-11-20T15:49:30;21.10;53.40
49711;DHT22;35602;44.534;18.696;2022-11-20T15:54:30;21.10;53.50
49711;DHT22;35602;44.534;18.696;2022-11-20T15:59:31;21.10;53.40
49711;DHT22;35602;44.534;18.696;2022-11-20T16:04:32;21.10;54.00
49711;DHT22;35602;44.534;18.696;2022-11-20T16:09:33;21.10;53.40
49711;DHT22;35602;44.534;18.696;2022-11-20T16:14:34;21.10;53.40
49711;DHT22;35602;44.534;18.696;2022-11-20T16:19:53;21.10;53.40
49711;DHT22;35602;44.534;18.696;2022-11-20T16:24:54;21.10;53.40
49711;DHT22;35602;44.534;18.696;2022-11-20T16:29:54;21.10;53.40
49711;DHT22;35602;44.534;18.696;2022-11-20T16:34:55;21.10;53.40
49711;DHT22;35602;44.534;18.696;2022-11-20T16:39:56;21.10;53.40
49711;DHT22;35602;44.534;18.696;2022-11-20T16:44:57;21.10;53.40
49711;DHT22;35602;44.534;18.696;2022-11-20T16:49:58;21.10;53.40
49711;DHT22;35602;44.534;18.696;2022-11-20T16:54:59;21.10;53.40
49711;DHT22;35602;44.534;18.696;2022-11-20T17:00:00;21.10;53.40
49711;DHT22;35602;44.534;18.696;2022-11-20T17:05:01;21.10;53.40
49711;DHT22;35602;44.534;18.696;2022-11-20T17:10:02;21.10;53.50
49711;DHT22;35602;44.534;18.696;2022-11-20T17:15:04;21.10;53.40
49711;DHT22;35602;44.534;18.696;2022-11-20T17:20:06;21.10;53.50
49711;DHT22;35602;44.534;18.696;2022-11-20T17:25:07;21.10;53.40
49711;DHT22;35602;44.534;18.696;2022-11-20T17:30:08;21.10;53.30
49711;DHT22;35602;44.534;18.696;2022-11-20T17:35:09;21.10;53.30
49711;DHT22;35602;44.534;18.696;2022-11-20T17:40:10;21.10;53.40
49711;DHT22;35602;44.534;18.696;2022-11-20T17:45:11;21.10;53.40
49711;DHT22;35602;44.534;18.696;2022-11-20T17:50:12;21.10;53.30
49711;DHT22;35602;44.534;18.696;2022-11-20T17:55:12;21.10;53.30
49711;DHT22;35602;44.534;18.696;2022-11-20T18:00:14;21.10;53.30
49711;DHT22;35602;44.534;18.696;2022-11-20T18:05:16;21.10;53.30
49711;DHT22;35602;44.534;18.696;2022-11-20T18:10:17;21.10;53.20
49711;DHT22;35602;44.534;18.696;2022-11-20T18:15:18;21.10;53.20
49711;DHT22;35602;44.534;18.696;2022-11-20T18:20:19;21.10;53.30
49711;DHT22;35602;44.534;18.696;2022-11-20T18:25:20;21.10;53.30
49711;DHT22;35602;44.534;18.696;2022-11-20T18:30:21;21.10;53.20
49711;DHT22;35602;44.534;18.696;2022-11-20T18:35:21;21.10;53.20
49711;DHT22;35602;44.534;18.696;2022-11-20T18:40:22;21.10;53.20
49711;DHT22;35602;44.534;18.696;2022-11-20T18:45:23;21.10;53.20
49711;DHT22;35602;44.534;18.696;2022-11-20T18:50:24;21.10;53.80
49711;DHT22;35602;44.534;18.696;2022-11-20T18:55:25;21.10;53.10
49711;DHT22;35602;44.534;18.696;2022-11-20T19:00:25;21.10;53.10
49711;DHT22;35602;44.534;18.696;2022-11-20T19:05:26;21.10;53.10
49711;DHT22;35602;44.534;18.696;2022-11-20T19:10:27;21.10;53.10
49711;DHT22;35602;44.534;18.696;2022-11-20T19:15:28;21.10;53.10
49711;DHT22;35602;44.534;18.696;2022-11-20T19:20:29;21.10;53.10
49711;DHT22;35602;44.534;18.696;2022-11-20T19:25:31;21.10;53.00
49711;DHT22;35602;44.534;18.696;2022-11-20T19:30:32;21.10;53.10
49711;DHT22;35602;44.534;18.696;2022-11-20T19:35:33;21.10;53.10
49711;DHT22;35602;44.534;18.696;2022-11-20T19:40:36;21.10;53.00
49711;DHT22;35602;44.534;18.696;2022-11-20T19:45:36;21.10;53.10
49711;DHT22;35602;44.534;18.696;2022-11-20T19:50:37;21.10;53.10
49711;DHT22;35602;44.534;18.696;2022-11-20T19:55:38;21.10;53.00
49711;DHT22;35602;44.534;18.696;2022-11-20T20:00:39;21.10;52.90
49711;DHT22;35602;44.534;18.696;2022-11-20T20:05:40;21.10;53.00
49711;DHT22;35602;44.534;18.696;2022-11-20T20:10:40;21.10;52.90
49711;DHT22;35602;44.534;18.696;2022-11-20T20:15:42;21.10;53.10
49711;DHT22;35602;44.534;18.696;2022-11-20T20:20:44;21.10;52.90
49711;DHT22;35602;44.534;18.696;2022-11-20T20:25:47;21.10;52.90
49711;DHT22;35602;44.534;18.696;2022-11-20T20:30:47;21.00;52.80
49711;DHT22;35602;44.534;18.696;2022-11-20T20:35:49;21.10;52.90
49711;DHT22;35602;44.534;18.696;2022-11-20T20:40:49;21.10;52.90
49711;DHT22;35602;44.534;18.696;2022-11-20T20:45:51;21.00;52.90
49711;DHT22;35602;44.534;18.696;2022-11-20T20:50:56;21.00;52.80
49711;DHT22;35602;44.534;18.696;2022-11-20T20:55:59;21.00;52.80
49711;DHT22;35602;44.534;18.696;2022-11-20T21:01:05;21.00;52.90
49711;DHT22;35602;44.534;18.696;2022-11-20T21:06:07;21.00;52.70
49711;DHT22;35602;44.534;18.696;2022-11-20T21:11:14;21.00;52.70
49711;DHT22;35602;44.534;18.696;2022-11-20T21:16:17;21.00;52.80
49711;DHT22;35602;44.534;18.696;2022-11-20T21:21:18;21.10;52.70
49711;DHT22;35602;44.534;18.696;2022-11-20T21:26:37;21.00;52.70
49711;DHT22;35602;44.534;18.696;2022-11-20T21:31:38;21.00;52.60
49711;DHT22;35602;44.534;18.696;2022-11-20T21:36:39;21.00;52.70
49711;DHT22;35602;44.534;18.696;2022-11-20T21:41:40;21.00;52.70
49711;DHT22;35602;44.534;18.696;2022-11-20T21:46:43;21.00;52.70
49711;DHT22;35602;44.534;18.696;2022-11-20T21:51:44;21.00;52.70
49711;DHT22;35602;44.534;18.696;2022-11-20T21:56:45;21.00;52.60
49711;DHT22;35602;44.534;18.696;2022-11-20T22:01:46;21.00;52.60
49711;DHT22;35602;44.534;18.696;2022-11-20T22:06:46;21.00;52.60
49711;DHT22;35602;44.534;18.696;2022-11-20T22:11:48;21.00;53.20
49711;DHT22;35602;44.534;18.696;2022-11-20T22:16:50;21.00;52.60
49711;DHT22;35602;44.534;18.696;2022-11-20T22:21:51;21.00;52.60
49711;DHT22;35602;44.534;18.696;2022-11-20T22:26:52;21.00;53.10
49711;DHT22;35602;44.534;18.696;2022-11-20T22:31:53;21.00;52.50
49711;DHT22;35602;44.534;18.696;2022-11-20T22:36:54;21.00;52.60
49711;DHT22;35602;44.534;18.696;2022-11-20T22:41:54;21.00;52.50
49711;DHT22;35602;44.534;18.696;2022-11-20T22:46:55;21.00;52.60
49711;DHT22;35602;44.534;18.696;2022-11-20T22:51:56;21.00;52.50
49711;DHT22;35602;44.534;18.696;2022-11-20T22:56:57;21.00;52.50
49711;DHT22;35602;44.534;18.696;2022-11-20T23:01:58;21.00;52.60
49711;DHT22;35602;44.534;18.696;2022-11-20T23:06:58;21.00;52.50
49711;DHT22;35602;44.534;18.696;2022-11-20T23:11:59;21.00;52.60
49711;DHT22;35602;44.534;18.696;2022-11-20T23:17:00;21.00;52.60
49711;DHT22;35602;44.534;18.696;2022-11-20T23:22:01;21.00;52.50
49711;DHT22;35602;44.534;18.696;2022-11-20T23:27:02;21.00;52.50
49711;DHT22;35602;44.534;18.696;2022-11-20T23:32:02;21.00;52.60
49711;DHT22;35602;44.534;18.696;2022-11-20T23:37:03;21.00;52.50
49711;DHT22;35602;44.534;18.696;2022-11-20T23:42:04;21.00;52.50
49711;DHT22;35602;44.534;18.696;2022-11-20T23:47:05;21.00;52.40
49711;DHT22;35602;44.534;18.696;2022-11-20T23:52:06;21.00;52.50
49711;DHT22;35602;44.534;18.696;2022-11-20T23:57:06;21.00;52.40
